Time;durP1;ratioP1;P1;durP2;ratioP2;P2;SDS_P1;SDS_P2;PMS_P1;PMS_P2;Temp;Humidity;BMP_temperature;BMP_pressure;BME280_temperature;BME280_humidity;BME280_pressure;Samples;Min_cycle;Max_cycle;Signal;HPM_P1;HPM_P2
2022/10/07 00:01:19;;;;;;;2.92;2.03;;;;;;;12.75;47.96;94897.06;5099269;28;20430;-77
2022/10/07 00:03:44;;;;;;;3.90;2.22;;;;;;;12.76;48.13;94906.63;5105208;27;20030;-77
2022/10/07 00:06:13;;;;;;;5.30;2.47;;;;;;;12.89;48.57;94929.09;5102382;28;20543;-77
2022/10/07 00:08:41;;;;;;;4.85;2.30;;;;;;;12.84;48.37;94929.97;5104226;28;20477;-77
2022/10/07 00:11:21;;;;;;;3.13;2.10;;;;;;;12.83;48.55;94928.41;5104444;28;20038;-77
2022/10/07 00:13:48;;;;;;;5.93;2.35;;;;;;;12.82;48.62;94934.03;5106665;28;20509;-77
2022/10/07 00:16:19;;;;;;;5.65;2.95;;;;;;;12.78;48.95;94931.16;5110423;28;20027;-77
2022/10/07 00:18:45;;;;;;;2.58;1.90;;;;;;;12.76;48.74;94922.66;5102300;27;20032;-77
2022/10/07 00:21:15;;;;;;;3.63;2.30;;;;;;;12.56;49.06;94900.94;5106494;28;20431;-77
2022/10/07 00:23:42;;;;;;;5.97;2.03;;;;;;;12.46;49.14;94883.25;5103985;28;20049;-76
2022/10/07 00:26:10;;;;;;;5.45;2.85;;;;;;;12.77;49.29;94924.25;5105327;28;20054;-76
2022/10/07 00:28:36;;;;;;;4.05;2.28;;;;;;;12.72;49.23;94910.22;5101868;28;20134;-76
2022/10/07 00:31:07;;;;;;;4.93;2.38;;;;;;;12.62;49.43;94895.19;5104026;28;20076;-77
2022/10/07 00:33:36;;;;;;;2.47;1.88;;;;;;;12.80;49.22;94922.88;5105083;28;20034;-77
2022/10/07 00:36:07;;;;;;;2.90;2.38;;;;;;;12.79;49.14;94921.28;5100398;28;20091;-77
2022/10/07 00:38:32;;;;;;;4.03;2.25;;;;;;;12.54;49.28;94876.41;5105263;28;20530;-77
2022/10/07 00:40:57;;;;;;;3.15;2.30;;;;;;;12.67;49.44;94887.09;5103483;28;20057;-77
2022/10/07 00:43:30;;;;;;;3.33;2.00;;;;;;;12.78;49.61;94909.81;5102170;27;20016;-77
2022/10/07 00:46:20;;;;;;;4.82;2.65;;;;;;;12.74;49.58;94898.16;5103225;27;20549;-77
2022/10/07 00:48:46;;;;;;;2.75;2.08;;;;;;;12.63;49.43;94883.44;5105495;27;20114;-77
2022/10/07 00:51:15;;;;;;;3.45;1.98;;;;;;;12.80;49.22;94904.97;5105226;27;20576;-78
2022/10/07 00:53:45;;;;;;;4.82;2.28;;;;;;;12.60;49.19;94870.72;5097846;27;20082;-76
2022/10/07 00:56:13;;;;;;;6.45;2.60;;;;;;;12.83;49.22;94901.69;5091100;27;20133;-76
2022/10/07 00:58:42;;;;;;;3.30;2.47;;;;;;;12.76;49.45;94895.19;5093134;27;20305;-77
2022/10/07 01:01:08;;;;;;;3.53;2.72;;;;;;;12.83;49.21;94904.38;5099259;28;20031;-77
2022/10/07 01:03:34;;;;;;;4.82;2.28;;;;;;;12.82;49.42;94905.44;5092163;27;20026;-77
2022/10/07 01:06:04;;;;;;;2.92;1.90;;;;;;;12.65;49.15;94875.94;5099180;27;20024;-77
2022/10/07 01:08:31;;;;;;;3.90;2.13;;;;;;;12.59;49.52;94890.47;5092425;27;20032;-77
2022/10/07 01:11:12;;;;;;;4.88;2.30;;;;;;;12.42;49.53;94863.56;5091869;27;20020;-77
2022/10/07 01:14:06;;;;;;;3.13;2.00;;;;;;;12.69;49.41;94900.94;5090454;27;20076;-76
2022/10/07 01:16:50;;;;;;;4.30;2.33;;;;;;;12.58;49.50;94899.56;5074346;27;20038;-76
2022/10/07 01:19:37;;;;;;;3.05;2.22;;;;;;;12.66;49.49;94901.56;5092005;27;20089;-77
2022/10/07 01:22:10;;;;;;;2.80;1.80;;;;;;;12.64;49.41;94895.72;5088827;27;20023;-77
2022/10/07 01:24:43;;;;;;;2.92;1.88;;;;;;;12.63;49.49;94896.78;5090512;27;20030;-76
2022/10/07 01:27:21;;;;;;;2.28;1.95;;;;;;;12.62;49.19;94895.19;5090202;27;20072;-77
2022/10/07 01:29:54;;;;;;;5.18;1.77;;;;;;;12.59;49.31;94895.81;5097343;27;20505;-77
2022/10/07 01:32:43;;;;;;;3.05;1.75;;;;;;;12.65;49.28;94899.16;5091731;27;20031;-77
2022/10/07 01:35:17;;;;;;;6.18;2.33;;;;;;;12.41;49.01;94856.69;5081793;27;20086;-77
2022/10/07 01:37:47;;;;;;;3.00;2.17;;;;;;;12.68;48.88;94894.00;5089083;27;20571;-76
2022/10/07 01:40:18;;;;;;;3.05;1.75;;;;;;;12.69;49.00;94895.59;5090611;27;20844;-77
2022/10/07 01:42:45;;;;;;;2.20;1.80;;;;;;;12.69;49.03;94898.28;5090234;27;20027;-77
2022/10/07 01:45:13;;;;;;;3.58;2.28;;;;;;;12.70;49.28;94891.84;5092576;27;20545;-77
2022/10/07 01:47:39;;;;;;;2.58;1.83;;;;;;;12.56;49.11;94867.03;5087536;27;20181;-76
2022/10/07 01:50:11;;;;;;;2.50;2.13;;;;;;;12.59;48.70;94865.66;5098406;27;20055;-77
2022/10/07 01:52:36;;;;;;;1.90;1.70;;;;;;;12.63;48.96;94888.78;5086205;27;20414;-78
2022/10/07 01:55:31;;;;;;;2.15;1.70;;;;;;;12.62;48.74;94889.06;5092250;27;20027;-77
2022/10/07 01:58:21;;;;;;;4.10;1.50;;;;;;;12.61;48.86;94888.31;5093954;27;20027;-77
2022/10/07 02:00:58;;;;;;;2.67;1.70;;;;;;;12.43;48.49;94860.63;5090803;27;20514;-76
2022/10/07 02:03:31;;;;;;;3.70;1.73;;;;;;;12.54;48.96;94887.88;5093014;27;20101;-76
2022/10/07 02:06:38;;;;;;;3.03;1.65;;;;;;;12.39;48.91;94858.84;5095324;27;20015;-76
2022/10/07 02:09:13;;;;;;;2.40;1.75;;;;;;;12.39;48.80;94856.19;5088163;27;20023;-77
2022/10/07 02:11:41;;;;;;;3.22;1.95;;;;;;;12.40;49.16;94863.09;5090084;27;20479;-77
2022/10/07 02:14:35;;;;;;;2.70;2.10;;;;;;;12.52;48.74;94874.03;5088159;27;20022;-77
2022/10/07 02:17:06;;;;;;;1.45;1.23;;;;;;;12.49;48.72;94882.66;5089527;27;20547;-77
2022/10/07 02:19:34;;;;;;;4.07;1.65;;;;;;;12.39;48.65;94890.88;5090625;27;20035;-77
2022/10/07 02:22:02;;;;;;;3.35;1.45;;;;;;;12.40;48.49;94890.56;5090081;27;20020;-76
2022/10/07 02:24:31;;;;;;;2.85;1.88;;;;;;;12.39;48.50;94888.19;5088623;27;20023;-77
2022/10/07 02:27:02;;;;;;;2.85;2.17;;;;;;;12.28;48.61;94886.81;5087805;27;20020;-76
2022/10/07 02:29:32;;;;;;;2.20;1.70;;;;;;;12.04;48.49;94863.81;5087972;27;20028;-77
2022/10/07 02:32:00;;;;;;;2.70;1.67;;;;;;;12.22;48.65;94893.34;5083864;27;20101;-77
2022/10/07 02:34:27;;;;;;;4.47;1.92;;;;;;;12.22;48.85;94896.81;5083392;27;20116;-76
2022/10/07 02:37:00;;;;;;;1.50;1.40;;;;;;;12.24;49.04;94909.84;5096639;28;20024;-77
2022/10/07 02:39:27;;;;;;;2.03;1.60;;;;;;;11.98;49.02;94880.19;5083874;27;20031;-76
2022/10/07 02:42:10;;;;;;;2.42;1.75;;;;;;;12.07;49.19;94898.97;5088534;27;20023;-77
2022/10/07 02:44:45;;;;;;;3.28;2.30;;;;;;;12.05;49.16;94899.25;5086203;27;20047;-77
2022/10/07 02:47:17;;;;;;;3.42;2.33;;;;;;;11.86;49.61;94872.69;5086206;27;20363;-76
2022/10/07 02:49:48;;;;;;;6.68;2.47;;;;;;;11.94;49.46;94884.53;5086637;28;20027;-77
2022/10/07 02:52:17;;;;;;;4.60;2.80;;;;;;;12.04;49.74;94906.47;5085353;28;20036;-77
2022/10/07 02:54:58;;;;;;;7.60;3.15;;;;;;;12.02;49.63;94903.31;5088623;27;20016;-76
2022/10/07 02:57:26;;;;;;;4.40;3.08;;;;;;;11.90;49.81;94908.34;5088541;27;20450;-76
2022/10/07 02:59:53;;;;;;;6.75;2.95;;;;;;;11.79;50.26;94888.28;5091535;27;20041;-77
2022/10/07 03:02:34;;;;;;;3.80;2.97;;;;;;;11.90;50.43;94900.34;5087251;27;20020;-77
2022/10/07 03:05:00;;;;;;;4.75;3.42;;;;;;;11.77;50.59;94906.44;5091102;28;20067;-77
2022/10/07 03:07:26;;;;;;;6.07;3.35;;;;;;;11.56;50.79;94882.03;5087436;27;20569;-77
2022/10/07 03:09:53;;;;;;;3.85;3.03;;;;;;;11.71;50.75;94904.16;5090793;27;20019;-76
2022/10/07 03:12:18;;;;;;;8.63;4.28;;;;;;;11.73;50.62;94910.78;5086335;27;20047;-77
2022/10/07 03:14:44;;;;;;;6.82;4.05;;;;;;;11.73;50.61;94899.34;5089390;27;20416;-77
2022/10/07 03:17:10;;;;;;;6.57;3.08;;;;;;;11.47;50.98;94869.63;5088747;27;20023;-77
2022/10/07 03:19:36;;;;;;;6.18;3.33;;;;;;;11.67;51.17;94901.28;5090678;27;20027;-76
2022/10/07 03:22:02;;;;;;;9.15;4.22;;;;;;;11.52;50.85;94869.59;5088469;27;20023;-77
2022/10/07 03:24:27;;;;;;;6.20;4.25;;;;;;;11.55;51.12;94877.78;5088716;27;20020;-76
2022/10/07 03:26:53;;;;;;;12.13;3.88;;;;;;;11.67;50.92;94901.28;5089409;27;20024;-75
2022/10/07 03:29:18;;;;;;;4.13;3.47;;;;;;;11.53;51.07;94889.81;5090668;27;20430;-74
2022/10/07 03:31:44;;;;;;;4.82;3.50;;;;;;;11.58;50.97;94895.06;5086761;27;20026;-75
2022/10/07 03:34:10;;;;;;;4.30;3.53;;;;;;;11.40;51.06;94870.00;5091546;27;20324;-76
2022/10/07 03:36:35;;;;;;;4.72;3.33;;;;;;;11.41;51.13;94884.91;5090050;28;20109;-75
2022/10/07 03:39:01;;;;;;;7.28;3.80;;;;;;;11.37;51.69;94896.44;5089835;28;20024;-75
2022/10/07 03:41:26;;;;;;;5.70;3.67;;;;;;;11.28;51.89;94866.22;5089346;28;20405;-75
2022/10/07 03:43:52;;;;;;;4.50;3.00;;;;;;;11.02;52.93;94865.84;5089438;28;20033;-76
2022/10/07 03:46:18;;;;;;;7.30;4.57;;;;;;;11.05;53.07;94874.03;5088140;27;20471;-76
2022/10/07 03:48:44;;;;;;;7.25;5.35;;;;;;;11.26;52.64;94884.38;5090003;28;20032;-77
2022/10/07 03:51:09;;;;;;;6.65;4.30;;;;;;;11.08;52.82;94862.81;5086984;28;20072;-76
2022/10/07 03:53:37;;;;;;;8.70;4.35;;;;;;;11.27;52.57;94891.28;5087506;28;20499;-77
2022/10/07 03:56:02;;;;;;;6.65;4.60;;;;;;;11.20;52.49;94877.56;5085850;28;20075;-77
2022/10/07 03:58:28;;;;;;;5.38;4.70;;;;;;;11.25;52.52;94882.81;5088569;28;20495;-76
2022/10/07 04:01:07;;;;;;;7.07;4.25;;;;;;;11.38;52.38;94898.03;5086480;28;20118;-76
2022/10/07 04:03:33;;;;;;;10.98;5.25;;;;;;;11.33;51.95;94898.91;5090139;28;20506;-77
2022/10/07 04:05:59;;;;;;;5.07;4.10;;;;;;;11.31;51.94;94881.63;5087008;27;20024;-76
2022/10/07 04:08:28;;;;;;;4.88;3.13;;;;;;;11.39;51.69;94889.75;5090713;28;20024;-77
2022/10/07 04:10:56;;;;;;;6.10;3.67;;;;;;;11.49;51.59;94910.88;5094568;28;20019;-77
2022/10/07 04:13:22;;;;;;;5.45;3.28;;;;;;;11.48;51.54;94906.66;5089110;28;20111;-77
2022/10/07 04:15:48;;;;;;;3.58;3.13;;;;;;;11.46;51.47;94894.69;5088699;28;20028;-76
2022/10/07 04:18:13;;;;;;;3.92;3.13;;;;;;;11.34;51.59;94876.53;5089182;28;20023;-76
2022/10/07 04:20:39;;;;;;;6.00;3.17;;;;;;;11.42;51.69;94883.03;5087647;28;20526;-77
2022/10/07 04:23:04;;;;;;;4.88;2.90;;;;;;;11.42;51.77;94883.03;5090002;28;20094;-77
2022/10/07 04:25:32;;;;;;;6.03;3.58;;;;;;;11.41;51.61;94881.44;5087504;28;20028;-76
2022/10/07 04:28:00;;;;;;;5.90;3.30;;;;;;;11.51;51.86;94886.66;5087386;28;20027;-77
2022/10/07 04:30:26;;;;;;;8.50;3.63;;;;;;;11.59;51.80;94896.63;5092791;27;20024;-76
2022/10/07 04:32:52;;;;;;;6.00;3.20;;;;;;;11.60;51.74;94887.53;5092723;27;20031;-77
2022/10/07 04:35:18;;;;;;;5.10;3.42;;;;;;;11.36;51.76;94860.22;5091628;27;20039;-77
2022/10/07 04:37:44;;;;;;;4.68;3.35;;;;;;;11.49;51.72;94883.47;5089756;27;20020;-77
2022/10/07 04:40:09;;;;;;;6.75;3.00;;;;;;;11.44;51.85;94875.56;5091483;27;20438;-77
2022/10/07 04:45:19;;;;;;;5.10;3.17;;;;;;;11.34;51.64;94865.06;5089532;27;21171;-78
2022/10/07 04:47:45;;;;;;;2.85;2.65;;;;;;;11.54;51.52;94891.41;5092413;27;20208;-77
2022/10/07 04:50:11;;;;;;;6.68;2.85;;;;;;;11.54;51.46;94894.84;5092474;27;20550;-78
2022/10/07 04:52:43;;;;;;;3.35;2.78;;;;;;;11.34;51.57;94859.75;5090704;27;20047;-77
2022/10/07 04:55:11;;;;;;;6.10;2.88;;;;;;;11.53;51.70;94892.47;5092495;28;20136;-77
2022/10/07 04:57:37;;;;;;;5.25;3.00;;;;;;;11.56;52.02;94889.22;5091281;27;20425;-77
2022/10/07 05:00:03;;;;;;;7.85;4.10;;;;;;;11.48;51.89;94881.88;5092376;27;20199;-76
2022/10/07 05:02:29;;;;;;;23.15;12.00;;;;;;;11.59;51.92;94889.41;5091425;27;20019;-77
2022/10/07 05:04:54;;;;;;;22.75;11.95;;;;;;;11.39;52.16;94855.13;5092487;27;20031;-77
2022/10/07 05:07:19;;;;;;;17.83;10.10;;;;;;;11.54;52.13;94886.06;5090983;27;20103;-77
2022/10/07 05:09:45;;;;;;;19.88;9.27;;;;;;;11.63;52.53;94897.63;5093344;27;20031;-77
2022/10/07 05:12:10;;;;;;;11.77;9.13;;;;;;;11.70;52.24;94898.03;5090235;28;20467;-77
2022/10/07 05:14:36;;;;;;;18.33;9.75;;;;;;;11.75;52.49;94911.28;5093671;27;20024;-77
2022/10/07 05:17:02;;;;;;;19.92;9.73;;;;;;;11.72;52.06;94901.22;5090234;27;20028;-77
2022/10/07 05:19:28;;;;;;;15.02;9.07;;;;;;;11.74;52.39;94904.34;5091357;27;20035;-77
2022/10/07 05:21:53;;;;;;;15.13;8.70;;;;;;;11.69;52.41;94896.44;5091166;27;20061;-77
2022/10/07 05:24:18;;;;;;;8.75;5.15;;;;;;;11.80;52.49;94921.84;5088450;27;20415;-77
2022/10/07 05:26:44;;;;;;;8.68;4.20;;;;;;;11.79;53.08;94927.47;5089337;27;20012;-77
2022/10/07 05:29:09;;;;;;;7.07;3.75;;;;;;;11.90;52.89;94928.88;5093209;27;20038;-77
2022/10/07 05:31:34;;;;;;;7.68;4.03;;;;;;;11.93;52.68;94922.97;5083653;27;20799;-77
2022/10/07 05:34:00;;;;;;;9.98;3.83;;;;;;;11.95;52.67;94902.91;5087328;28;20028;-77
2022/10/07 05:36:26;;;;;;;5.43;3.58;;;;;;;12.18;52.61;94927.81;5082159;27;20448;-77
2022/10/07 05:38:58;;;;;;;5.30;3.50;;;;;;;12.26;52.56;94931.69;5087209;27;20720;-78
2022/10/07 05:41:26;;;;;;;8.23;4.22;;;;;;;12.23;52.43;94918.91;5086825;27;20027;-77
2022/10/07 05:43:52;;;;;;;3.58;2.58;;;;;;;12.40;52.27;94927.13;5085943;27;20550;-76
2022/10/07 05:46:19;;;;;;;4.07;3.53;;;;;;;12.50;52.12;94937.59;5089757;27;20032;-77
2022/10/07 05:48:50;;;;;;;4.43;2.90;;;;;;;12.58;51.39;94931.59;5089458;27;20099;-76
2022/10/07 05:51:17;;;;;;;5.43;3.53;;;;;;;12.26;51.26;94871.13;5088921;27;20032;-77
2022/10/07 05:53:45;;;;;;;5.88;2.90;;;;;;;12.74;50.94;94938.19;5086568;27;20214;-77
2022/10/07 05:56:14;;;;;;;6.72;3.17;;;;;;;12.73;51.19;94920.59;5086860;27;20159;-77
2022/10/07 05:58:39;;;;;;;6.72;4.00;;;;;;;12.22;50.83;94832.81;5090228;27;20028;-76
2022/10/07 06:01:06;;;;;;;7.82;3.50;;;;;;;12.85;51.01;94910.22;5085703;27;20596;-76
2022/10/07 06:03:32;;;;;;;18.73;5.15;;;;;;;13.09;51.61;94941.19;5091088;27;20016;-77
2022/10/07 06:05:59;;;;;;;11.27;5.95;;;;;;;13.15;51.82;94945.34;5088231;27;20026;-78
2022/10/07 06:08:25;;;;;;;8.15;5.40;;;;;;;13.24;52.05;94940.84;5089070;27;20119;-77
2022/10/07 06:13:35;;;;;;;8.75;5.13;;;;;;;13.42;51.21;94939.09;5090282;27;20847;-77
2022/10/07 06:16:06;;;;;;;9.57;5.20;;;;;;;13.52;51.16;94938.84;5087697;27;20028;-77
2022/10/07 06:18:32;;;;;;;9.95;4.75;;;;;;;13.52;50.93;94944.19;5098502;27;20654;-77
2022/10/07 06:20:59;;;;;;;8.35;4.85;;;;;;;13.64;50.72;94936.47;5090826;27;20695;-76
2022/10/07 06:23:26;;;;;;;6.90;3.30;;;;;;;13.67;49.76;94947.34;5089073;27;20020;-77
2022/10/07 06:25:56;;;;;;;5.03;4.10;;;;;;;13.75;49.46;94943.13;5089112;27;20697;-78
2022/10/07 06:28:22;;;;;;;4.43;3.70;;;;;;;13.83;49.53;94938.94;5089941;27;20388;-76
2022/10/07 06:30:49;;;;;;;6.72;4.43;;;;;;;13.97;48.74;94945.78;5088664;27;20511;-77
2022/10/07 06:33:16;;;;;;;7.43;3.92;;;;;;;13.65;48.46;94893.38;5087531;27;20077;-77
2022/10/07 06:35:42;;;;;;;9.50;4.88;;;;;;;13.87;48.35;94923.84;5088266;27;20076;-77
2022/10/07 06:38:08;;;;;;;7.47;4.03;;;;;;;14.16;48.75;94954.38;5089481;27;20024;-78
2022/10/07 06:40:33;;;;;;;6.15;3.85;;;;;;;14.17;48.40;94941.78;5089574;27;20443;-77
2022/10/07 06:42:59;;;;;;;7.25;4.43;;;;;;;14.30;48.36;94958.84;5087071;27;20434;-77
2022/10/07 06:45:24;;;;;;;13.48;4.75;;;;;;;14.28;47.97;94956.47;5086655;28;20398;-77
2022/10/07 06:47:51;;;;;;;10.40;5.65;;;;;;;14.26;48.10;94942.63;5087768;27;20028;-77
2022/10/07 06:50:17;;;;;;;10.82;5.15;;;;;;;14.42;48.24;94962.50;5087371;28;20513;-76
2022/10/07 06:52:43;;;;;;;6.35;4.32;;;;;;;14.50;48.14;94969.00;5085476;27;20122;-76
2022/10/07 06:55:08;;;;;;;10.38;5.32;;;;;;;14.49;47.98;94954.03;5088471;28;20023;-78
2022/10/07 06:57:34;;;;;;;5.95;4.30;;;;;;;14.39;47.24;94933.69;5090466;27;20034;-77
2022/10/07 07:00:00;;;;;;;10.82;5.82;;;;;;;14.69;47.17;94969.56;5088261;27;20117;-78
2022/10/07 07:02:26;;;;;;;5.93;4.20;;;;;;;14.73;46.87;94972.41;5087361;27;20030;-77
2022/10/07 07:04:53;;;;;;;9.02;5.63;;;;;;;14.59;46.55;94941.19;5090032;27;20461;-77
2022/10/07 07:07:19;;;;;;;10.85;4.45;;;;;;;14.87;46.76;94973.88;5085329;28;20231;-78
2022/10/07 07:09:44;;;;;;;8.02;4.28;;;;;;;14.84;46.65;94958.44;5085533;27;20024;-76
2022/10/07 07:12:10;;;;;;;15.30;5.75;;;;;;;14.84;47.15;94952.28;5085472;27;20394;-77
2022/10/07 07:14:35;;;;;;;5.85;4.03;;;;;;;15.01;46.49;94963.81;5090386;28;20081;-76
2022/10/07 07:17:01;;;;;;;6.93;3.63;;;;;;;14.89;46.49;94938.75;5083080;27;20115;-76
2022/10/07 07:19:26;;;;;;;8.05;4.03;;;;;;;14.89;45.89;94930.72;5087715;27;20588;-77
2022/10/07 07:21:51;;;;;;;6.70;3.92;;;;;;;15.11;45.60;94968.06;5082973;28;20027;-77
2022/10/07 07:24:17;;;;;;;9.38;4.22;;;;;;;15.03;45.91;94956.25;5086757;27;20023;-77
2022/10/07 07:26:43;;;;;;;6.35;4.68;;;;;;;14.91;45.95;94933.88;5083818;28;20114;-77
2022/10/07 07:29:11;;;;;;;9.80;5.30;;;;;;;15.12;46.62;94961.63;5084326;27;20433;-76
2022/10/07 07:31:36;;;;;;;7.05;5.43;;;;;;;15.02;46.54;94948.53;5084664;28;20110;-77
2022/10/07 07:34:10;;;;;;;7.03;5.78;;;;;;;15.10;46.82;94950.44;5087410;28;20445;-78
2022/10/07 07:36:37;;;;;;;11.82;5.68;;;;;;;15.21;47.13;94957.06;5087720;28;20020;-77
2022/10/07 07:39:08;;;;;;;11.00;5.90;;;;;;;15.17;45.49;94937.34;5088798;28;20337;-78
2022/10/07 07:41:40;;;;;;;7.78;4.28;;;;;;;15.19;45.94;94953.91;5087151;28;20489;-78
2022/10/07 07:44:10;;;;;;;8.60;4.57;;;;;;;15.22;46.22;94942.56;5085230;28;20031;-77
2022/10/07 07:46:38;;;;;;;9.68;4.95;;;;;;;15.27;46.45;94950.44;5089081;28;20024;-76
2022/10/07 07:49:04;;;;;;;6.72;4.10;;;;;;;15.13;45.89;94928.38;5086577;28;20083;-77
2022/10/07 07:51:30;;;;;;;8.25;5.40;;;;;;;15.01;45.62;94925.50;5089793;28;20048;-77
2022/10/07 07:53:56;;;;;;;12.77;5.00;;;;;;;15.12;45.99;94948.22;5084274;28;20487;-77
2022/10/07 07:56:22;;;;;;;8.35;5.93;;;;;;;15.09;46.31;94927.44;5086813;28;20030;-77
2022/10/07 07:58:47;;;;;;;17.10;5.72;;;;;;;15.23;45.73;94943.34;5086938;28;20122;-77
2022/10/07 08:01:16;;;;;;;12.57;7.43;;;;;;;15.04;46.18;94924.91;5088109;28;20038;-76
2022/10/07 08:03:43;;;;;;;7.68;4.38;;;;;;;15.21;44.79;94949.00;5087477;27;20036;-76
2022/10/07 08:06:10;;;;;;;9.30;6.68;;;;;;;15.25;44.21;94941.94;5092570;27;20059;-77
2022/10/07 08:08:36;;;;;;;7.97;5.53;;;;;;;15.26;43.62;94930.09;5090193;27;20046;-78
2022/10/07 08:11:09;;;;;;;14.88;5.35;;;;;;;15.30;43.97;94908.84;5092162;27;20024;-76
2022/10/07 08:13:35;;;;;;;6.57;2.53;;;;;;;15.53;43.04;94930.91;5104332;27;20118;-77
2022/10/07 08:16:03;;;;;;;3.13;2.05;;;;;;;15.65;43.41;94923.00;5090238;27;20019;-77
2022/10/07 08:18:30;;;;;;;2.55;1.67;;;;;;;15.58;41.61;94901.25;5088342;27;20043;-77
2022/10/07 08:21:03;;;;;;;3.20;1.50;;;;;;;15.66;40.27;94909.28;5094474;27;20016;-77
2022/10/07 08:23:29;;;;;;;6.30;3.92;;;;;;;15.56;41.05;94882.00;5096454;27;20058;-77
2022/10/07 08:25:56;;;;;;;4.57;2.42;;;;;;;15.74;40.97;94899.66;5092661;27;20107;-76
2022/10/07 08:28:23;;;;;;;4.78;2.58;;;;;;;15.65;40.28;94885.47;5090495;27;20347;-77
2022/10/07 08:30:50;;;;;;;2.55;1.65;;;;;;;15.75;40.11;94896.66;5088697;27;20247;-76
2022/10/07 08:33:16;;;;;;;7.22;3.30;;;;;;;15.82;39.79;94896.97;5090460;27;20028;-77
2022/10/07 08:35:42;;;;;;;8.80;4.90;;;;;;;15.81;42.11;94895.38;5089740;27;20039;-78
2022/10/07 08:38:08;;;;;;;8.57;3.60;;;;;;;15.93;41.11;94902.78;5090369;27;20565;-77
2022/10/07 08:40:34;;;;;;;8.45;4.47;;;;;;;16.03;40.65;94899.75;5090724;27;20031;-78
2022/10/07 08:43:00;;;;;;;5.40;2.63;;;;;;;16.02;39.99;94903.53;5092176;27;20098;-77
2022/10/07 08:45:31;;;;;;;5.57;2.70;;;;;;;15.92;39.50;94879.72;5091146;27;20031;-77
2022/10/07 08:48:06;;;;;;;6.15;3.60;;;;;;;16.13;40.12;94904.75;5091042;27;20024;-77
2022/10/07 08:50:45;;;;;;;4.53;3.10;;;;;;;16.20;40.78;94896.97;5088213;27;20095;-77
2022/10/07 08:53:19;;;;;;;2.70;2.03;;;;;;;16.26;39.82;94894.91;5089143;27;20076;-77
2022/10/07 08:55:50;;;;;;;4.17;2.10;;;;;;;16.36;40.14;94896.47;5090289;27;20055;-77
2022/10/07 08:58:24;;;;;;;2.13;1.70;;;;;;;16.38;39.31;94892.34;5089764;27;20282;-77
2022/10/07 09:01:14;;;;;;;4.47;2.30;;;;;;;16.36;40.17;94880.38;5084638;27;20031;-76
2022/10/07 09:03:50;;;;;;;6.80;2.72;;;;;;;16.41;39.00;94882.88;5091637;27;20031;-76
2022/10/07 09:06:27;;;;;;;9.02;4.25;;;;;;;16.47;38.83;94873.53;5088148;27;20201;-77
2022/10/07 09:09:01;;;;;;;3.17;1.83;;;;;;;16.45;38.75;94865.00;5088735;27;20224;-77
2022/10/07 09:11:29;;;;;;;2.85;2.00;;;;;;;16.50;38.81;94872.88;5097011;27;20405;-76
2022/10/07 09:14:16;;;;;;;7.35;1.88;;;;;;;16.41;38.69;94847.97;5088504;27;20028;-76
2022/10/07 09:16:45;;;;;;;13.57;4.72;;;;;;;16.57;38.53;94868.56;5088631;27;20027;-75
2022/10/07 09:19:25;;;;;;;15.75;5.78;;;;;;;16.51;38.43;94851.06;5088976;27;20114;-74
2022/10/07 09:21:50;;;;;;;5.82;3.38;;;;;;;16.65;38.78;94858.88;5088110;27;20037;-75
2022/10/07 09:24:22;;;;;;;6.72;3.35;;;;;;;16.74;38.46;94857.72;5081763;28;20038;-76
2022/10/07 09:26:47;;;;;;;4.88;3.40;;;;;;;16.57;38.41;94838.25;5084509;27;20153;-75
2022/10/07 09:29:15;;;;;;;4.00;2.25;;;;;;;16.49;38.05;94828.31;5088063;27;20043;-75
2022/10/07 09:31:40;;;;;;;6.60;2.17;;;;;;;16.60;38.42;94837.59;5087495;28;20024;-75
2022/10/07 09:34:17;;;;;;;7.15;3.55;;;;;;;16.53;37.83;94827.34;5086105;27;20031;-75
2022/10/07 09:37:10;;;;;;;5.55;3.58;;;;;;;16.77;37.67;94850.88;5090464;27;20034;-75
2022/10/07 09:39:36;;;;;;;10.98;4.38;;;;;;;16.78;37.87;94836.34;5090555;27;20031;-75
2022/10/07 09:42:03;;;;;;;8.13;4.22;;;;;;;16.91;37.39;94854.13;5087448;27;20395;-75
2022/10/07 09:44:29;;;;;;;5.00;2.45;;;;;;;16.89;37.88;94852.88;5089918;27;20032;-75
2022/10/07 09:46:58;;;;;;;5.63;2.30;;;;;;;16.94;37.61;94844.63;5086376;27;20031;-76
2022/10/07 09:49:26;;;;;;;4.95;2.22;;;;;;;16.93;37.56;94843.81;5081685;27;20158;-75
2022/10/07 09:52:14;;;;;;;4.93;1.80;;;;;;;16.82;37.44;94849.94;5085464;27;20270;-75
2022/10/07 09:54:41;;;;;;;3.10;2.35;;;;;;;16.75;36.79;94842.38;5087768;27;20066;-77
2022/10/07 09:57:23;;;;;;;2.45;1.88;;;;;;;16.67;36.05;94835.19;5086424;27;20036;-75
2022/10/07 09:59:48;;;;;;;5.70;2.47;;;;;;;16.67;37.32;94816.38;5085800;27;20055;-76
2022/10/07 10:02:14;;;;;;;4.20;2.17;;;;;;;16.91;37.21;94829.94;5084600;27;20818;-75
2022/10/07 10:05:17;;;;;;;2.25;1.50;;;;;;;16.87;37.45;94820.94;5085836;27;20032;-76
2022/10/07 10:07:46;;;;;;;8.80;2.22;;;;;;;16.70;38.13;94780.78;5085473;27;20081;-75
2022/10/07 10:10:16;;;;;;;5.07;1.75;;;;;;;17.05;37.79;94825.09;5086908;27;20107;-76
2022/10/07 10:12:46;;;;;;;2.40;2.00;;;;;;;17.00;36.68;94817.22;5090329;27;20354;-75
2022/10/07 10:15:28;;;;;;;5.38;2.05;;;;;;;17.10;37.62;94816.81;5086903;27;20027;-75
2022/10/07 10:17:55;;;;;;;3.47;1.50;;;;;;;16.95;36.20;94820.09;5086134;27;20055;-75
2022/10/07 10:20:42;;;;;;;3.97;1.63;;;;;;;16.86;35.68;94811.34;5095222;27;20024;-76
2022/10/07 10:23:31;;;;;;;8.60;1.75;;;;;;;16.91;36.10;94816.50;5089586;27;20052;-75
2022/10/07 10:26:25;;;;;;;7.75;2.17;;;;;;;16.89;36.07;94804.50;5090473;27;20024;-76
2022/10/07 10:29:24;;;;;;;1.77;1.40;;;;;;;16.86;35.91;94805.97;5088136;27;20027;-75
2022/10/07 10:31:56;;;;;;;3.92;1.73;;;;;;;16.97;35.84;94801.75;5092333;27;20027;-76
2022/10/07 10:34:53;;;;;;;2.42;1.80;;;;;;;16.98;35.72;94787.19;5092904;27;20236;-76
2022/10/07 10:37:25;;;;;;;2.38;1.60;;;;;;;17.13;35.63;94789.31;5089705;27;20072;-76
2022/10/07 10:39:56;;;;;;;3.47;2.03;;;;;;;17.22;36.33;94791.13;5087124;27;20023;-75
2022/10/07 10:42:34;;;;;;;2.42;1.50;;;;;;;17.31;36.97;94794.50;5093454;27;20023;-75
2022/10/07 10:45:23;;;;;;;1.80;1.40;;;;;;;17.37;36.62;94780.53;5083182;27;20019;-76
2022/10/07 10:48:01;;;;;;;4.20;1.90;;;;;;;17.41;37.14;94786.03;5084205;28;20053;-77
2022/10/07 10:50:50;;;;;;;4.43;1.98;;;;;;;17.48;37.15;94775.50;5082206;27;20038;-75
2022/10/07 10:53:40;;;;;;;1.90;1.50;;;;;;;17.47;36.72;94772.03;5083895;27;20043;-76
2022/10/07 10:56:19;;;;;;;2.58;1.70;;;;;;;17.56;37.44;94775.41;5086752;27;20528;-76
2022/10/07 10:59:08;;;;;;;2.92;1.75;;;;;;;17.66;35.93;94773.41;5086115;27;20495;-75
2022/10/07 11:01:40;;;;;;;2.33;1.52;;;;;;;17.70;36.31;94766.25;5079261;27;20044;-75
2022/10/07 11:04:35;;;;;;;2.97;1.83;;;;;;;17.60;35.96;94764.75;5076822;27;20417;-76
2022/10/07 11:07:06;;;;;;;2.33;1.30;;;;;;;17.58;36.20;94746.28;5092441;27;20026;-76
2022/10/07 11:09:42;;;;;;;1.98;1.50;;;;;;;17.63;35.92;94753.34;5099076;27;20390;-76
2022/10/07 11:12:25;;;;;;;2.92;1.55;;;;;;;17.49;35.81;94707.94;5081660;27;20028;-75
2022/10/07 11:15:03;;;;;;;4.43;1.48;;;;;;;17.71;35.08;94728.25;5085613;27;20028;-75
2022/10/07 11:17:32;;;;;;;1.70;1.30;;;;;;;17.94;36.29;94753.59;5084618;27;20036;-75
2022/10/07 11:20:19;;;;;;;4.10;1.52;;;;;;;18.00;35.93;94752.28;5083165;28;20386;-76
2022/10/07 11:22:53;;;;;;;2.95;1.77;;;;;;;18.07;36.85;94750.94;5077784;27;20433;-76
2022/10/07 11:25:30;;;;;;;2.40;1.42;;;;;;;18.14;35.90;94743.84;5084215;28;20028;-74
2022/10/07 11:28:06;;;;;;;1.65;1.45;;;;;;;18.14;35.99;94716.16;5086300;28;20030;-74
2022/10/07 11:30:42;;;;;;;1.83;1.20;;;;;;;18.30;35.26;94743.94;5093550;27;20051;-75
2022/10/07 11:33:14;;;;;;;6.30;1.40;;;;;;;18.27;34.53;94731.16;5086455;27;20042;-75
2022/10/07 11:35:50;;;;;;;1.35;1.02;;;;;;;18.23;34.34;94739.16;5087418;28;20051;-75
2022/10/07 11:38:19;;;;;;;2.42;1.33;;;;;;;18.34;35.09;94734.06;5081268;27;20038;-76
2022/10/07 11:40:52;;;;;;;1.90;1.10;;;;;;;18.44;36.86;94733.59;5082766;28;20358;-75
2022/10/07 11:43:21;;;;;;;4.40;1.60;;;;;;;18.41;36.81;94718.91;5091476;28;20015;-74
2022/10/07 11:45:51;;;;;;;2.22;1.17;;;;;;;18.50;35.85;94720.69;5081740;28;20050;-76
2022/10/07 11:48:38;;;;;;;6.93;2.17;;;;;;;18.62;35.16;94724.13;5096897;27;20156;-74
2022/10/07 11:51:05;;;;;;;1.33;1.15;;;;;;;18.25;35.98;94687.63;5082219;28;20111;-74
2022/10/07 11:53:35;;;;;;;1.73;1.00;;;;;;;18.48;35.94;94713.72;5097060;27;20139;-76